Time;durP1;ratioP1;P1;durP2;ratioP2;P2;SDS_P1;SDS_P2;PMS_P1;PMS_P2;Temp;Humidity;BMP_temperature;BMP_pressure;BME280_temperature;BME280_humidity;BME280_pressure;Samples;Min_cycle;Max_cycle;Signal;HPM_P1;HPM_P2
2022/10/24 00:00:08;;;;;;;5.97;2.20;;;14.90;99.90;;;;;;4943538;28;20055;-62
2022/10/24 00:02:34;;;;;;;13.90;2.50;;;14.90;99.90;;;;;;4951208;28;20160;-62
2022/10/24 00:05:00;;;;;;;8.23;2.40;;;14.90;99.90;;;;;;4945556;28;20056;-62
2022/10/24 00:07:26;;;;;;;4.45;2.00;;;14.90;99.90;;;;;;4947214;28;20093;-62
2022/10/24 00:09:52;;;;;;;12.10;2.30;;;14.90;99.90;;;;;;4944182;28;20047;-63
2022/10/24 00:12:18;;;;;;;5.32;2.00;;;14.90;99.90;;;;;;4945309;28;20473;-63
2022/10/24 00:14:44;;;;;;;9.20;2.42;;;14.90;99.90;;;;;;4944507;28;20129;-62
2022/10/24 00:17:10;;;;;;;6.95;2.40;;;15.00;99.90;;;;;;4946088;28;20157;-62
2022/10/24 00:19:36;;;;;;;8.30;2.35;;;15.00;99.90;;;;;;4945333;28;20544;-62
2022/10/24 00:22:02;;;;;;;5.30;2.00;;;14.90;99.90;;;;;;4946900;28;20054;-63
2022/10/24 00:24:28;;;;;;;5.03;2.30;;;14.90;99.90;;;;;;4946943;28;20047;-62
2022/10/24 00:26:54;;;;;;;4.00;1.92;;;14.90;99.90;;;;;;4952822;28;20379;-62
2022/10/24 00:29:20;;;;;;;5.55;1.80;;;14.90;99.90;;;;;;4946221;28;20062;-62
2022/10/24 00:31:46;;;;;;;7.70;2.15;;;14.90;99.90;;;;;;4952889;28;20047;-62
2022/10/24 00:34:11;;;;;;;6.40;1.85;;;14.90;99.90;;;;;;4945381;28;20150;-62
2022/10/24 00:36:37;;;;;;;4.68;1.83;;;14.90;99.90;;;;;;4936035;28;20039;-62
2022/10/24 00:39:03;;;;;;;6.50;2.28;;;14.90;99.90;;;;;;4953639;28;20752;-62
2022/10/24 00:41:36;;;;;;;5.32;1.92;;;14.90;99.90;;;;;;4951944;28;20043;-62
2022/10/24 00:44:20;;;;;;;10.05;2.10;;;14.90;99.90;;;;;;4946006;28;20121;-61
2022/10/24 00:47:09;;;;;;;7.78;2.25;;;14.80;99.90;;;;;;4951720;28;20133;-62
2022/10/24 00:50:00;;;;;;;7.50;1.95;;;14.80;99.90;;;;;;4944991;28;20047;-62
2022/10/24 00:52:40;;;;;;;5.75;2.10;;;14.80;99.90;;;;;;4946222;28;20065;-61
2022/10/24 00:55:07;;;;;;;6.35;1.85;;;14.80;99.90;;;;;;4944918;28;20058;-63
2022/10/24 00:57:41;;;;;;;8.43;2.13;;;14.70;99.90;;;;;;4954757;28;20106;-62
2022/10/24 01:00:11;;;;;;;2.88;1.75;;;14.70;99.90;;;;;;4953809;28;20051;-61
2022/10/24 01:02:38;;;;;;;6.75;1.80;;;14.70;99.90;;;;;;4945658;28;20043;-63
2022/10/24 01:05:05;;;;;;;8.43;1.90;;;14.70;99.90;;;;;;4945193;28;20157;-62
2022/10/24 01:07:43;;;;;;;6.00;1.50;;;14.70;99.90;;;;;;4944191;28;20090;-62
2022/10/24 01:10:18;;;;;;;7.78;1.83;;;14.70;99.90;;;;;;4943166;28;20051;-61
2022/10/24 01:13:13;;;;;;;5.88;1.70;;;14.70;99.90;;;;;;4934511;28;20061;-64
2022/10/24 01:15:58;;;;;;;5.32;1.60;;;14.70;99.90;;;;;;4951036;28;20047;-63
2022/10/24 01:18:30;;;;;;;7.72;1.70;;;14.60;99.90;;;;;;4949091;28;20054;-62
2022/10/24 01:21:23;;;;;;;4.18;1.83;;;14.60;99.90;;;;;;4956448;28;20097;-62
2022/10/24 01:24:43;;;;;;;3.55;1.63;;;14.60;99.90;;;;;;4941337;28;20540;-63
2022/10/24 01:27:36;;;;;;;7.38;1.75;;;14.60;99.90;;;;;;4950718;28;20494;-63
2022/10/24 01:30:05;;;;;;;7.90;1.50;;;14.50;99.90;;;;;;4949795;28;20047;-63
2022/10/24 01:32:34;;;;;;;5.82;1.65;;;14.50;99.90;;;;;;4963822;28;20062;-62
2022/10/24 01:35:12;;;;;;;6.20;1.70;;;14.50;99.90;;;;;;4948993;28;20051;-61
2022/10/24 01:37:51;;;;;;;3.72;1.50;;;14.50;99.90;;;;;;4946808;28;21190;-62
2022/10/24 01:40:30;;;;;;;6.32;1.85;;;14.60;99.90;;;;;;4934045;28;20459;-62
2022/10/24 01:43:02;;;;;;;7.03;1.80;;;14.50;99.90;;;;;;4949987;28;20501;-62
2022/10/24 01:45:34;;;;;;;5.17;1.70;;;14.50;99.90;;;;;;4947504;28;20050;-62
2022/10/24 01:48:04;;;;;;;6.45;1.73;;;14.50;99.90;;;;;;4938981;28;20074;-63
2022/10/24 01:50:33;;;;;;;7.32;1.95;;;14.60;99.90;;;;;;4937349;28;20137;-62
2022/10/24 01:53:01;;;;;;;7.68;2.10;;;14.60;99.90;;;;;;4950880;28;20078;-61
2022/10/24 01:55:29;;;;;;;5.38;2.08;;;14.60;99.90;;;;;;4946980;28;20055;-61
2022/10/24 01:57:54;;;;;;;8.23;2.00;;;14.70;99.90;;;;;;4950667;28;20043;-63
2022/10/24 02:00:22;;;;;;;8.52;2.30;;;14.70;99.90;;;;;;4956658;28;20059;-63
2022/10/24 02:03:33;;;;;;;6.95;2.40;;;14.80;99.90;;;;;;4957128;28;20493;-62
2022/10/24 02:06:06;;;;;;;6.47;2.10;;;14.80;99.90;;;;;;4950217;28;20101;-62
2022/10/24 02:08:38;;;;;;;8.48;2.35;;;14.90;99.90;;;;;;4950026;28;20089;-62
2022/10/24 02:11:06;;;;;;;7.37;2.07;;;14.90;99.90;;;;;;4949983;28;20124;-63
2022/10/24 02:13:56;;;;;;;5.97;2.45;;;14.90;99.90;;;;;;4932295;28;20165;-61
2022/10/24 02:16:22;;;;;;;7.85;2.30;;;14.90;99.90;;;;;;4949809;28;20494;-62
2022/10/24 02:18:51;;;;;;;4.75;2.20;;;14.90;99.90;;;;;;4948359;28;20055;-63
2022/10/24 02:21:23;;;;;;;6.47;2.10;;;14.90;99.90;;;;;;4948791;28;20050;-62
2022/10/24 02:24:09;;;;;;;5.22;2.05;;;15.00;99.90;;;;;;4952650;28;20706;-63
2022/10/24 02:26:56;;;;;;;7.03;2.25;;;15.00;99.90;;;;;;4954969;28;20491;-61
2022/10/24 02:29:33;;;;;;;7.70;2.03;;;15.00;99.90;;;;;;4948833;28;20071;-62
2022/10/24 02:32:01;;;;;;;6.88;2.65;;;15.00;99.90;;;;;;4954636;28;20418;-62
2022/10/24 02:34:31;;;;;;;6.03;2.30;;;15.00;99.90;;;;;;4953397;28;20051;-63
2022/10/24 02:36:58;;;;;;;7.40;2.13;;;15.10;99.90;;;;;;4947310;28;20047;-63
2022/10/24 02:39:26;;;;;;;4.82;2.17;;;15.00;99.90;;;;;;4946671;28;20613;-62
2022/10/24 02:41:54;;;;;;;9.27;2.63;;;15.10;99.90;;;;;;4953803;28;20047;-62
2022/10/24 02:44:22;;;;;;;12.38;2.40;;;15.10;99.90;;;;;;4948868;28;20054;-62
2022/10/24 02:46:51;;;;;;;9.07;2.30;;;15.10;99.90;;;;;;4949958;28;20054;-63
2022/10/24 02:49:17;;;;;;;7.85;2.20;;;15.10;99.90;;;;;;4948697;28;20159;-63
2022/10/24 02:51:45;;;;;;;8.57;2.70;;;15.20;99.90;;;;;;4944949;28;20040;-62
2022/10/24 02:54:11;;;;;;;8.10;2.40;;;15.10;99.90;;;;;;4948714;28;20138;-63
2022/10/24 02:56:42;;;;;;;7.18;2.20;;;15.10;99.90;;;;;;4946682;28;20050;-64
2022/10/24 02:59:08;;;;;;;9.82;2.35;;;15.20;99.90;;;;;;4948512;28;20121;-62
2022/10/24 03:01:34;;;;;;;6.80;2.13;;;15.20;99.90;;;;;;4950667;28;20082;-62
2022/10/24 03:03:59;;;;;;;8.90;2.22;;;15.10;99.90;;;;;;4948393;28;20162;-63
2022/10/24 03:06:25;;;;;;;10.90;2.10;;;15.20;99.90;;;;;;4945003;28;20063;-61
2022/10/24 03:08:51;;;;;;;10.18;2.08;;;15.20;99.90;;;;;;4947618;28;20043;-63
2022/10/24 03:11:17;;;;;;;7.28;2.33;;;15.20;99.90;;;;;;4951594;28;20046;-62
2022/10/24 03:13:43;;;;;;;6.88;2.05;;;15.20;99.90;;;;;;4944875;28;20047;-63
2022/10/24 03:16:08;;;;;;;7.25;2.08;;;15.20;99.90;;;;;;4946874;28;20104;-62
2022/10/24 03:18:34;;;;;;;12.50;2.70;;;15.20;99.90;;;;;;4945835;28;20554;-61
2022/10/24 03:21:00;;;;;;;10.57;1.95;;;15.20;99.90;;;;;;4950355;28;20051;-62
2022/10/24 03:23:27;;;;;;;11.88;2.72;;;15.30;99.90;;;;;;4950033;28;20047;-63
2022/10/24 03:25:57;;;;;;;8.23;2.55;;;15.30;99.90;;;;;;4950916;28;20055;-62
2022/10/24 03:28:24;;;;;;;10.38;2.20;;;15.30;99.90;;;;;;4950702;28;21059;-62
2022/10/24 03:30:51;;;;;;;12.15;2.55;;;15.30;99.90;;;;;;4951174;28;20555;-63
2022/10/24 03:33:17;;;;;;;11.70;2.28;;;15.30;99.90;;;;;;4949287;28;20125;-62
2022/10/24 03:35:42;;;;;;;11.70;2.60;;;15.30;99.90;;;;;;4948223;28;20117;-63
2022/10/24 03:38:08;;;;;;;6.40;2.20;;;15.30;99.90;;;;;;4947467;28;20085;-65
2022/10/24 03:40:35;;;;;;;7.13;2.63;;;15.30;99.90;;;;;;4956245;28;20105;-63
2022/10/24 03:43:00;;;;;;;14.90;2.70;;;15.30;99.90;;;;;;4950578;28;20046;-61
2022/10/24 03:45:26;;;;;;;7.07;2.17;;;15.30;99.90;;;;;;4948286;28;20043;-63
2022/10/24 03:47:52;;;;;;;6.45;2.05;;;15.30;99.90;;;;;;4949326;28;20113;-64
2022/10/24 03:50:18;;;;;;;8.48;2.15;;;15.30;99.90;;;;;;4945967;28;20486;-63
2022/10/24 03:52:44;;;;;;;8.15;2.63;;;15.30;99.90;;;;;;4943318;28;20051;-61
2022/10/24 03:55:10;;;;;;;6.90;2.15;;;15.30;99.90;;;;;;4948731;28;20062;-62
2022/10/24 03:57:36;;;;;;;10.27;2.88;;;15.30;99.90;;;;;;4949956;28;20047;-63
2022/10/24 04:00:04;;;;;;;6.97;2.20;;;15.30;99.90;;;;;;4957897;28;20062;-62
2022/10/24 04:02:29;;;;;;;6.07;2.15;;;15.40;99.90;;;;;;4950155;28;20051;-62
2022/10/24 04:04:55;;;;;;;9.48;2.45;;;15.40;99.90;;;;;;4957965;28;20050;-62
2022/10/24 04:07:22;;;;;;;7.22;2.35;;;15.40;99.90;;;;;;4949089;28;20051;-62
2022/10/24 04:09:47;;;;;;;6.32;2.30;;;15.40;99.90;;;;;;4960476;28;20449;-62
2022/10/24 04:12:13;;;;;;;7.32;2.30;;;15.40;99.90;;;;;;4949555;28;20050;-62
2022/10/24 04:14:39;;;;;;;8.02;2.85;;;15.40;99.90;;;;;;4950484;28;20054;-62
2022/10/24 04:17:05;;;;;;;6.90;2.30;;;15.40;99.90;;;;;;4940909;28;20058;-63
2022/10/24 04:19:31;;;;;;;9.45;2.22;;;15.40;99.90;;;;;;4947690;28;20035;-62
2022/10/24 04:21:57;;;;;;;8.90;2.60;;;15.40;99.90;;;;;;4953542;28;20062;-62
2022/10/24 04:24:23;;;;;;;11.85;2.33;;;15.40;99.90;;;;;;4954551;28;20114;-62
2022/10/24 04:26:48;;;;;;;9.10;2.58;;;15.40;99.90;;;;;;4945324;28;20051;-63
2022/10/24 04:29:14;;;;;;;8.63;2.42;;;15.30;99.90;;;;;;4947787;28;20039;-61
2022/10/24 04:31:40;;;;;;;16.65;2.80;;;15.30;99.90;;;;;;4945680;28;20482;-62
2022/10/24 04:34:07;;;;;;;7.93;2.60;;;15.30;99.90;;;;;;4946516;28;20109;-63
2022/10/24 04:36:34;;;;;;;8.85;2.70;;;15.30;99.90;;;;;;4932174;28;20059;-63
2022/10/24 04:38:59;;;;;;;7.25;2.20;;;15.20;99.90;;;;;;4955007;28;20529;-63
2022/10/24 04:41:25;;;;;;;9.88;2.40;;;15.20;99.90;;;;;;4946139;28;20126;-62
2022/10/24 04:43:51;;;;;;;9.18;2.40;;;15.20;99.90;;;;;;4944072;28;20061;-62
2022/10/24 04:46:17;;;;;;;8.02;2.47;;;15.20;99.90;;;;;;4943828;28;20169;-62
2022/10/24 04:48:43;;;;;;;10.25;2.38;;;15.10;99.90;;;;;;4945580;28;20573;-62
2022/10/24 04:51:09;;;;;;;9.65;2.20;;;15.10;99.90;;;;;;4945974;28;20050;-62
2022/10/24 04:53:35;;;;;;;11.90;2.45;;;15.10;99.90;;;;;;4953334;28;20496;-63
2022/10/24 04:56:01;;;;;;;5.00;2.30;;;15.10;99.90;;;;;;4934146;28;20106;-63
2022/10/24 04:58:27;;;;;;;11.20;2.28;;;15.10;99.90;;;;;;4945615;28;20051;-62
2022/10/24 05:00:53;;;;;;;11.15;2.40;;;15.00;99.90;;;;;;4940762;28;20065;-63
2022/10/24 05:03:20;;;;;;;8.57;2.15;;;15.00;99.90;;;;;;4954821;28;20055;-61
2022/10/24 05:05:46;;;;;;;5.78;2.20;;;15.00;99.90;;;;;;4954349;28;20058;-62
2022/10/24 05:08:12;;;;;;;6.43;2.33;;;15.00;99.90;;;;;;4947267;28;20078;-63
2022/10/24 05:10:38;;;;;;;8.05;2.60;;;14.90;99.90;;;;;;4941122;28;20050;-63
2022/10/24 05:13:04;;;;;;;11.38;2.28;;;14.90;99.90;;;;;;4935320;28;20047;-63
2022/10/24 05:15:29;;;;;;;7.25;2.30;;;14.90;99.90;;;;;;4938170;28;20051;-63
2022/10/24 05:17:57;;;;;;;10.13;2.40;;;14.90;99.90;;;;;;4943402;28;20075;-64
2022/10/24 05:20:23;;;;;;;6.15;2.20;;;14.90;99.90;;;;;;4941323;28;20166;-62
2022/10/24 05:22:49;;;;;;;7.53;2.42;;;14.90;99.90;;;;;;4934323;28;20036;-61
2022/10/24 05:25:14;;;;;;;11.75;2.17;;;14.90;99.90;;;;;;4939858;28;20095;-63
2022/10/24 05:27:40;;;;;;;7.45;2.30;;;14.90;99.90;;;;;;4943118;28;20047;-62
2022/10/24 05:30:07;;;;;;;10.00;2.30;;;14.90;99.90;;;;;;4941809;28;20157;-62
2022/10/24 05:32:33;;;;;;;7.65;2.22;;;14.90;99.90;;;;;;4945815;28;20347;-62
2022/10/24 05:35:02;;;;;;;5.70;2.33;;;14.80;99.90;;;;;;4937970;28;20134;-63
2022/10/24 05:37:28;;;;;;;7.05;2.28;;;14.80;99.90;;;;;;4944552;28;20058;-62
2022/10/24 05:39:54;;;;;;;5.38;1.90;;;14.80;99.90;;;;;;4944121;28;20074;-63
2022/10/24 05:42:20;;;;;;;3.95;1.95;;;14.70;99.90;;;;;;4946182;28;20556;-62
2022/10/24 05:44:45;;;;;;;7.80;2.03;;;14.70;99.90;;;;;;4948328;28;20059;-62
2022/10/24 05:47:11;;;;;;;6.75;2.20;;;14.70;99.90;;;;;;4950303;28;20047;-61
2022/10/24 05:49:37;;;;;;;8.52;2.20;;;14.70;99.90;;;;;;4939249;28;20046;-62
2022/10/24 05:52:03;;;;;;;14.05;2.45;;;14.70;99.90;;;;;;4939015;28;20051;-63
2022/10/24 05:54:29;;;;;;;10.77;1.88;;;14.70;99.90;;;;;;4939243;28;20043;-62
2022/10/24 05:56:55;;;;;;;11.10;1.70;;;14.70;99.90;;;;;;4913397;28;20043;-62
2022/10/24 05:59:21;;;;;;;8.30;2.38;;;14.70;99.90;;;;;;4943012;28;20055;-61
2022/10/24 06:01:47;;;;;;;12.20;2.42;;;14.70;99.90;;;;;;4957754;28;20057;-62
2022/10/24 06:04:12;;;;;;;12.32;2.13;;;14.80;99.90;;;;;;4947777;28;20040;-63
2022/10/24 06:06:43;;;;;;;8.05;2.00;;;14.80;99.90;;;;;;4946883;28;20118;-61
2022/10/24 06:09:10;;;;;;;6.90;1.85;;;14.80;99.90;;;;;;4948127;28;20054;-61
2022/10/24 06:11:36;;;;;;;8.00;2.20;;;14.80;99.90;;;;;;4946915;28;20420;-57
2022/10/24 06:14:02;;;;;;;7.18;1.77;;;14.80;99.90;;;;;;4949603;28;20043;-56
2022/10/24 06:16:29;;;;;;;7.25;1.70;;;14.80;99.90;;;;;;4953178;28;20055;-58
2022/10/24 06:18:56;;;;;;;7.47;1.80;;;14.80;99.90;;;;;;4952516;28;20106;-57
2022/10/24 06:21:22;;;;;;;12.00;2.03;;;14.80;99.90;;;;;;4952854;28;20132;-58
2022/10/24 06:23:48;;;;;;;8.65;2.13;;;14.80;99.90;;;;;;4961204;28;20414;-58
2022/10/24 06:26:13;;;;;;;4.85;1.92;;;14.80;99.90;;;;;;4951027;28;20044;-57
2022/10/24 06:28:40;;;;;;;6.45;1.90;;;14.80;99.90;;;;;;4950969;28;20051;-57
2022/10/24 06:31:07;;;;;;;10.68;2.35;;;14.70;99.90;;;;;;4952314;28;20039;-56
2022/10/24 06:33:34;;;;;;;9.55;2.38;;;14.70;99.90;;;;;;4943189;28;20043;-57
2022/10/24 06:36:03;;;;;;;11.00;1.98;;;14.70;99.90;;;;;;4950863;28;20054;-58
2022/10/24 06:38:29;;;;;;;6.43;1.77;;;14.70;99.90;;;;;;4933496;28;20093;-57
2022/10/24 06:40:55;;;;;;;6.15;1.80;;;14.70;99.90;;;;;;4952071;28;20074;-57
2022/10/24 06:43:21;;;;;;;8.68;2.05;;;14.70;99.90;;;;;;4949964;28;20142;-57
2022/10/24 06:45:47;;;;;;;8.88;1.80;;;14.70;99.90;;;;;;4950412;28;20047;-57
2022/10/24 06:48:13;;;;;;;7.97;1.63;;;14.70;99.90;;;;;;4950716;28;20039;-57
2022/10/24 06:50:39;;;;;;;8.13;1.75;;;14.70;99.90;;;;;;4951730;28;20043;-57
2022/10/24 06:53:06;;;;;;;8.93;1.73;;;14.80;99.90;;;;;;4961101;28;20043;-57
2022/10/24 06:55:32;;;;;;;5.78;1.73;;;14.80;99.90;;;;;;4952975;28;20463;-56
2022/10/24 06:57:58;;;;;;;9.95;1.95;;;14.80;99.90;;;;;;4952338;28;20062;-57
2022/10/24 07:00:24;;;;;;;6.40;1.83;;;14.90;99.90;;;;;;4950671;28;20054;-57
2022/10/24 07:02:50;;;;;;;7.32;2.00;;;14.90;99.90;;;;;;4952578;28;20069;-58
2022/10/24 07:05:16;;;;;;;6.25;1.50;;;14.90;99.90;;;;;;4951234;28;20058;-57
2022/10/24 07:07:43;;;;;;;10.20;1.65;;;15.00;99.90;;;;;;4949477;28;20059;-57
2022/10/24 07:10:12;;;;;;;9.65;1.88;;;15.00;99.90;;;;;;4950555;28;20058;-56
2022/10/24 07:12:38;;;;;;;9.27;1.73;;;15.00;99.90;;;;;;4961113;28;20062;-56
2022/10/24 07:15:05;;;;;;;6.65;1.67;;;15.10;99.90;;;;;;4952423;28;20062;-57
2022/10/24 07:17:36;;;;;;;7.65;1.60;;;15.10;99.90;;;;;;4950295;28;20085;-57
2022/10/24 07:20:02;;;;;;;6.70;2.05;;;15.10;99.90;;;;;;4950516;28;20051;-57
2022/10/24 07:22:28;;;;;;;5.63;1.50;;;15.10;99.90;;;;;;4951237;28;20521;-57
2022/10/24 07:24:55;;;;;;;8.02;1.58;;;15.20;99.90;;;;;;4951631;28;20053;-56
2022/10/24 07:27:22;;;;;;;3.97;1.42;;;15.20;99.90;;;;;;4951148;28;20054;-58
2022/10/24 07:29:48;;;;;;;8.93;2.00;;;15.20;99.90;;;;;;4950452;28;20049;-57
2022/10/24 07:32:14;;;;;;;5.75;1.88;;;15.20;99.90;;;;;;4950751;28;20043;-58
2022/10/24 07:34:40;;;;;;;5.60;1.70;;;15.20;99.90;;;;;;4949299;28;20098;-57
2022/10/24 07:37:06;;;;;;;11.70;1.90;;;15.30;99.90;;;;;;4952750;28;20039;-57
2022/10/24 07:39:31;;;;;;;9.27;1.77;;;15.30;99.90;;;;;;4949711;28;20039;-58
2022/10/24 07:41:57;;;;;;;4.97;1.30;;;15.40;99.90;;;;;;4951815;28;20046;-57
2022/10/24 07:44:23;;;;;;;7.45;1.83;;;15.40;99.90;;;;;;4949400;28;20047;-57
2022/10/24 07:46:51;;;;;;;6.30;1.65;;;15.50;99.90;;;;;;4951709;28;20042;-57
2022/10/24 07:49:17;;;;;;;9.43;2.13;;;15.60;99.90;;;;;;4950223;28;20069;-57
2022/10/24 07:51:43;;;;;;;9.75;1.90;;;15.60;99.90;;;;;;4959205;28;20509;-57
2022/10/24 07:54:09;;;;;;;8.05;1.73;;;15.60;99.90;;;;;;4950635;28;20083;-58
2022/10/24 07:56:35;;;;;;;6.93;1.77;;;15.60;99.90;;;;;;4951042;28;21103;-57
2022/10/24 07:59:00;;;;;;;7.47;1.90;;;15.60;99.90;;;;;;4951416;28;20124;-57
2022/10/24 08:01:28;;;;;;;9.45;1.90;;;15.60;99.90;;;;;;4950024;28;20039;-57
2022/10/24 08:03:54;;;;;;;7.45;1.73;;;15.70;99.90;;;;;;4950609;28;20046;-57
2022/10/24 08:06:24;;;;;;;5.20;1.55;;;15.70;99.90;;;;;;4949744;28;20214;-57
2022/10/24 08:08:51;;;;;;;5.93;1.92;;;15.80;99.90;;;;;;4950262;28;20782;-57
2022/10/24 08:11:23;;;;;;;9.68;1.60;;;15.80;99.90;;;;;;4950378;28;20083;-56
2022/10/24 08:13:50;;;;;;;7.30;1.55;;;15.80;99.90;;;;;;4949748;28;20048;-57
2022/10/24 08:16:19;;;;;;;3.40;1.42;;;15.80;99.90;;;;;;4949276;28;20051;-56
2022/10/24 08:18:46;;;;;;;7.53;1.60;;;15.80;99.90;;;;;;4951085;28;20053;-56
2022/10/24 08:21:14;;;;;;;9.15;1.63;;;15.90;99.90;;;;;;4959953;28;20050;-57
2022/10/24 08:23:42;;;;;;;5.50;1.50;;;15.90;99.90;;;;;;4947983;28;20051;-57
2022/10/24 08:26:12;;;;;;;8.27;1.95;;;16.00;99.90;;;;;;4950232;28;20110;-57
2022/10/24 08:28:38;;;;;;;6.65;1.63;;;16.00;99.90;;;;;;4949584;28;20579;-57
2022/10/24 08:31:07;;;;;;;8.68;1.83;;;16.00;99.90;;;;;;4949780;28;20043;-56
2022/10/24 08:33:34;;;;;;;8.23;2.00;;;16.00;99.90;;;;;;4948829;28;20051;-57
2022/10/24 08:36:03;;;;;;;7.50;2.05;;;16.00;99.90;;;;;;4950511;28;20051;-58
2022/10/24 08:38:29;;;;;;;8.80;2.10;;;16.10;99.90;;;;;;4949498;28;20117;-57
2022/10/24 08:40:56;;;;;;;8.35;2.83;;;16.10;99.90;;;;;;4950131;28;20047;-57
2022/10/24 08:43:22;;;;;;;9.38;2.00;;;16.10;99.90;;;;;;4950555;28;20047;-57
2022/10/24 08:45:54;;;;;;;12.90;2.17;;;16.10;99.90;;;;;;4949237;28;20786;-57
2022/10/24 08:48:31;;;;;;;10.90;3.07;;;16.10;99.90;;;;;;4951110;28;20047;-56
2022/10/24 08:51:09;;;;;;;9.70;1.83;;;16.20;99.90;;;;;;4949132;28;20298;-57
2022/10/24 08:53:36;;;;;;;9.75;3.38;;;16.20;99.90;;;;;;4951022;28;20462;-57
2022/10/24 08:56:05;;;;;;;8.50;2.30;;;16.10;99.90;;;;;;4950320;28;20129;-57
2022/10/24 08:58:39;;;;;;;6.38;2.10;;;16.10;99.90;;;;;;4949777;28;20058;-57
2022/10/24 09:01:15;;;;;;;8.52;2.15;;;16.10;99.90;;;;;;4950737;28;20131;-57
2022/10/24 09:03:46;;;;;;;6.82;2.72;;;16.20;99.90;;;;;;4950525;28;20047;-57
2022/10/24 09:06:17;;;;;;;13.63;1.80;;;16.20;99.90;;;;;;4950733;28;20502;-57
2022/10/24 09:09:00;;;;;;;8.68;2.03;;;16.20;99.90;;;;;;4950852;28;20075;-56
2022/10/24 09:11:55;;;;;;;14.02;2.45;;;16.30;99.90;;;;;;4950487;28;20074;-57
2022/10/24 09:14:26;;;;;;;8.32;2.50;;;16.30;99.90;;;;;;4948773;28;20043;-57
2022/10/24 09:17:18;;;;;;;7.50;1.52;;;16.30;99.90;;;;;;4949596;28;20612;-57
2022/10/24 09:19:53;;;;;;;6.40;1.70;;;16.20;99.90;;;;;;4949545;28;20786;-56
2022/10/24 09:22:20;;;;;;;9.05;2.70;;;16.20;99.90;;;;;;4948672;28;20059;-56
2022/10/24 09:24:50;;;;;;;5.60;2.65;;;16.20;99.90;;;;;;4947702;28;20054;-57
2022/10/24 09:27:20;;;;;;;8.63;2.47;;;16.20;99.90;;;;;;4949344;28;20058;-57
2022/10/24 09:29:46;;;;;;;13.88;3.33;;;16.30;99.90;;;;;;4948942;28;20102;-57
2022/10/24 09:32:29;;;;;;;10.57;2.90;;;16.40;99.90;;;;;;4948394;28;20091;-56
2022/10/24 09:34:57;;;;;;;;;;;16.50;99.90;;;;;;4950562;28;20050;-56
2022/10/24 09:37:44;;;;;;;10.65;2.92;;;16.60;99.90;;;;;;4953168;28;19973;-56
2022/10/24 09:40:16;;;;;;;10.45;2.22;;;16.70;99.90;;;;;;4952302;28;20043;-57
2022/10/24 09:43:15;;;;;;;11.18;2.28;;;16.80;99.90;;;;;;4950964;28;20058;-57
2022/10/24 09:45:46;;;;;;;12.88;2.33;;;17.00;99.90;;;;;;4952402;28;20058;-55
2022/10/24 09:48:21;;;;;;;9.18;2.30;;;17.10;99.90;;;;;;4953108;28;20070;-57
2022/10/24 09:50:50;;;;;;;8.15;1.80;;;17.20;99.90;;;;;;4951616;28;20137;-57
2022/10/24 09:53:55;;;;;;;7.13;2.00;;;17.30;99.90;;;;;;4952893;28;20051;-57
2022/10/24 09:56:31;;;;;;;9.95;2.10;;;17.30;99.90;;;;;;4951619;28;20067;-57
2022/10/24 09:58:56;;;;;;;8.88;2.17;;;17.30;99.90;;;;;;4951655;28;20130;-56
2022/10/24 10:01:23;;;;;;;10.85;1.70;;;17.20;99.90;;;;;;4953168;28;20503;-56
2022/10/24 10:04:01;;;;;;;7.38;1.92;;;17.20;99.90;;;;;;4951488;28;20094;-56
2022/10/24 10:06:27;;;;;;;7.72;1.92;;;17.10;99.90;;;;;;4951848;28;20598;-56
2022/10/24 10:08:55;;;;;;;8.07;1.63;;;17.00;99.90;;;;;;4951502;28;20066;-57
2022/10/24 10:11:26;;;;;;;14.25;2.00;;;16.90;99.90;;;;;;4952309;28;20048;-58
2022/10/24 10:13:54;;;;;;;7.25;1.50;;;16.80;99.90;;;;;;4951447;28;20106;-57
2022/10/24 10:16:24;;;;;;;15.25;2.17;;;16.80;99.90;;;;;;4952501;28;20051;-56
2022/10/24 10:18:59;;;;;;;9.07;2.05;;;16.70;99.90;;;;;;4951675;28;20113;-55
2022/10/24 10:21:25;;;;;;;10.18;1.50;;;16.70;99.90;;;;;;4951882;28;20121;-57
2022/10/24 10:23:53;;;;;;;6.35;1.60;;;16.70;99.90;;;;;;4952547;28;20046;-57
2022/10/24 10:26:19;;;;;;;7.70;1.65;;;16.80;99.90;;;;;;4950884;28;20058;-57
2022/10/24 10:29:19;;;;;;;7.03;1.67;;;16.90;99.90;;;;;;4951064;28;20039;-58
2022/10/24 10:31:47;;;;;;;12.02;2.28;;;16.90;99.90;;;;;;4952685;28;20123;-57
2022/10/24 10:34:48;;;;;;;9.90;1.80;;;16.90;99.90;;;;;;4952185;28;20050;-58
2022/10/24 10:37:34;;;;;;;8.63;1.92;;;16.80;99.90;;;;;;4925035;28;20062;-57
2022/10/24 10:40:20;;;;;;;10.15;1.65;;;16.60;99.90;;;;;;4952260;28;20469;-58
2022/10/24 10:42:52;;;;;;;10.40;1.88;;;16.60;99.90;;;;;;4952885;28;20537;-57
2022/10/24 10:45:33;;;;;;;9.30;1.60;;;16.40;99.90;;;;;;4960815;28;20071;-56
2022/10/24 10:48:19;;;;;;;15.77;2.25;;;16.40;99.90;;;;;;4950151;28;20513;-58
2022/10/24 10:50:59;;;;;;;8.65;1.65;;;16.30;99.90;;;;;;4950720;28;20042;-58
2022/10/24 10:53:36;;;;;;;9.38;1.60;;;16.20;99.90;;;;;;4951851;28;20043;-57
2022/10/24 10:56:25;;;;;;;8.90;1.90;;;16.10;99.90;;;;;;4951246;28;20077;-56
2022/10/24 10:59:05;;;;;;;7.47;1.70;;;16.00;99.90;;;;;;4912808;28;20116;-57
2022/10/24 11:01:55;;;;;;;7.07;1.77;;;16.00;99.90;;;;;;4951539;28;20058;-57
2022/10/24 11:04:57;;;;;;;7.22;1.50;;;16.10;99.90;;;;;;4951461;28;20489;-57
2022/10/24 11:07:29;;;;;;;13.43;2.03;;;16.20;99.90;;;;;;4949367;28;20067;-57
2022/10/24 11:10:23;;;;;;;6.45;1.58;;;16.50;99.90;;;;;;4951743;28;20055;-58
2022/10/24 11:12:49;;;;;;;7.60;1.98;;;16.70;99.90;;;;;;4949501;28;20098;-58
2022/10/24 11:15:32;;;;;;;10.35;1.70;;;16.80;99.90;;;;;;4949931;28;20503;-58
2022/10/24 11:18:04;;;;;;;6.18;1.55;;;16.90;99.90;;;;;;4951597;28;20441;-58
2022/10/24 11:20:45;;;;;;;5.53;1.50;;;17.00;99.90;;;;;;4950987;28;20055;-57
2022/10/24 11:23:32;;;;;;;8.70;1.58;;;17.00;99.90;;;;;;4952049;28;20039;-57
2022/10/24 11:26:07;;;;;;;9.27;1.73;;;16.90;99.90;;;;;;4945216;28;20043;-57
2022/10/24 11:28:45;;;;;;;7.90;1.38;;;16.90;99.90;;;;;;4947916;28;20624;-57
2022/10/24 11:31:35;;;;;;;8.35;2.00;;;16.80;99.90;;;;;;4947065;28;20035;-58
2022/10/24 11:34:14;;;;;;;12.35;1.60;;;16.80;99.90;;;;;;4946201;28;20501;-58
2022/10/24 11:36:51;;;;;;;8.77;1.88;;;16.70;99.90;;;;;;4949748;28;20082;-57
2022/10/24 11:39:24;;;;;;;6.93;1.70;;;16.70;99.90;;;;;;4946117;28;20093;-57
2022/10/24 11:41:58;;;;;;;12.43;1.85;;;16.60;99.90;;;;;;4946536;28;20118;-58
2022/10/24 11:44:34;;;;;;;7.75;1.58;;;16.60;99.90;;;;;;4949463;28;20501;-57
2022/10/24 11:47:29;;;;;;;9.38;1.50;;;16.50;99.90;;;;;;4953935;28;20055;-58
2022/10/24 11:50:05;;;;;;;8.50;1.50;;;16.40;99.90;;;;;;4936706;28;20070;-56
2022/10/24 11:52:37;;;;;;;10.68;1.73;;;16.30;99.90;;;;;;4948447;28;20058;-57
2022/10/24 11:55:23;;;;;;;9.70;1.50;;;16.30;99.90;;;;;;4946913;28;20111;-57
2022/10/24 11:57:53;;;;;;;10.07;2.42;;;16.30;99.90;;;;;;4947871;28;20135;-57
2022/10/24 12:00:29;;;;;;;13.55;1.80;;;16.30;99.90;;;;;;4944142;28;20398;-57
2022/10/24 12:03:19;;;;;;;8.77;1.63;;;16.30;99.90;;;;;;4956187;28;20055;-57
2022/10/24 12:06:07;;;;;;;11.25;1.70;;;16.40;99.90;;;;;;4946341;28;20055;-57
2022/10/24 12:09:04;;;;;;;8.82;1.52;;;16.40;99.90;;;;;;4945986;28;20677;-58
2022/10/24 12:11:45;;;;;;;6.28;1.55;;;16.30;99.90;;;;;;4947787;28;20079;-57
2022/10/24 12:14:20;;;;;;;11.13;1.70;;;16.30;99.90;;;;;;4946917;28;20043;-57
2022/10/24 12:17:15;;;;;;;5.88;1.35;;;16.30;99.90;;;;;;4944200;28;20043;-57
2022/10/24 12:19:44;;;;;;;8.75;1.70;;;16.30;99.90;;;;;;4945231;28;20118;-58
2022/10/24 12:22:20;;;;;;;6.85;1.27;;;16.40;99.90;;;;;;4946402;28;20083;-58
2022/10/24 12:24:46;;;;;;;6.55;1.75;;;16.40;99.90;;;;;;4948134;28;20054;-57
2022/10/24 12:27:36;;;;;;;13.10;1.88;;;16.50;99.90;;;;;;4946391;28;20109;-58
2022/10/24 12:30:07;;;;;;;8.85;1.98;;;16.60;99.90;;;;;;4958324;28;20039;-58
2022/10/24 12:32:43;;;;;;;8.75;1.63;;;16.80;99.90;;;;;;4948997;28;20046;-58
2022/10/24 12:35:28;;;;;;;10.55;2.30;;;16.90;99.90;;;;;;4948957;28;20054;-58
2022/10/24 12:37:55;;;;;;;9.88;1.92;;;16.90;99.90;;;;;;4948752;28;20077;-57
2022/10/24 12:40:57;;;;;;;5.68;1.50;;;16.80;99.90;;;;;;4948923;28;20522;-57
2022/10/24 12:43:29;;;;;;;8.38;1.63;;;16.80;99.90;;;;;;4947974;28;20583;-58
2022/10/24 12:46:00;;;;;;;11.20;2.15;;;16.70;99.90;;;;;;4946500;28;20058;-56
2022/10/24 12:48:31;;;;;;;8.75;1.38;;;16.60;99.90;;;;;;4945187;28;21017;-58
2022/10/24 12:51:03;;;;;;;4.93;1.70;;;16.60;99.90;;;;;;4945430;28;20125;-57
2022/10/24 12:53:33;;;;;;;8.45;1.38;;;16.60;99.90;;;;;;4945635;28;20106;-58
2022/10/24 12:55:58;;;;;;;7.72;1.45;;;16.60;99.90;;;;;;4945621;28;20047;-58
2022/10/24 12:58:31;;;;;;;8.02;1.30;;;16.80;99.90;;;;;;4947910;28;20051;-57
2022/10/24 13:01:00;;;;;;;4.68;1.30;;;17.10;99.90;;;;;;4948450;28;20061;-58
2022/10/24 13:03:47;;;;;;;9.40;1.55;;;17.30;99.90;;;;;;4957218;28;20046;-57
2022/10/24 13:06:36;;;;;;;5.40;1.20;;;17.40;99.90;;;;;;4944910;28;20186;-58